Time,TemperatureF,DewpointF,PressureIn,WindDirection,WindDirectionDegrees,WindSpeedMPH,WindSpeedGustMPH,Humidity,HourlyPrecipIn,Conditions,Clouds,dailyrainin,SoftwareType,DateUTC
2013-06-20 00:06:00,53.2,51.0,30.16,NNE,25,0.0,0.0,91,0.00,,,0.00,weatherlink.com 1.10,2013-06-20 04:06:00,
2013-06-20 00:21:00,52.8,50.0,30.17,NNE,25,0.0,0.0,91,0.00,,,0.00,weatherlink.com 1.10,2013-06-20 04:21:00,
2013-06-20 00:36:00,52.5,50.0,30.17,NNE,25,0.0,0.0,92,0.00,,,0.00,weatherlink.com 1.10,2013-06-20 04:36:00,
2013-06-20 00:51:00,52.3,50.0,30.17,NNE,25,0.0,0.0,92,0.00,,,0.00,weatherlink.com 1.10,2013-06-20 04:51:00,
2013-06-20 01:06:00,52.2,50.0,30.17,NNE,25,0.0,0.0,93,0.00,,,0.00,weatherlink.com 1.10,2013-06-20 05:06:00,
2013-06-20 01:21:00,52.1,50.0,30.17,NNE,25,0.0,0.0,93,0.00,,,0.00,weatherlink.com 1.10,2013-06-20 05:21:00,
2013-06-20 01:36:00,52.0,50.0,30.17,NNE,24,0.0,0.0,93,0.00,,,0.00,weatherlink.com 1.10,2013-06-20 05:36:00,
2013-06-20 01:51:00,51.8,50.0,30.17,NNE,24,0.0,0.0,93,0.00,,,0.00,weatherlink.com 1.10,2013-06-20 05:51:00,
2013-06-20 02:06:00,51.9,50.0,30.18,NNE,24,0.0,0.0,94,0.00,,,0.00,weatherlink.com 1.10,2013-06-20 06:06:00,
2013-06-20 02:21:00,52.3,51.0,30.17,NNE,24,0.0,0.0,94,0.00,,,0.00,weatherlink.com 1.10,2013-06-20 06:21:00,
2013-06-20 02:36:00,52.0,50.0,30.17,NNE,25,0.0,0.0,94,0.00,,,0.00,weatherlink.com 1.10,2013-06-20 06:36:00,
2013-06-20 02:51:00,52.0,50.0,30.16,NNE,25,0.0,0.0,94,0.00,,,0.00,weatherlink.com 1.10,2013-06-20 06:51:00,
2013-06-20 03:06:00,51.8,50.0,30.17,NNE,24,0.0,0.0,94,0.00,,,0.00,weatherlink.com 1.10,2013-06-20 07:06:00,
2013-06-20 03:21:00,51.6,50.0,30.17,NNE,25,0.0,0.0,94,0.00,,,0.00,weatherlink.com 1.10,2013-06-20 07:21:00,
2013-06-20 03:36:00,51.5,50.0,30.17,NNE,25,0.0,0.0,94,0.00,,,0.00,weatherlink.com 1.10,2013-06-20 07:36:00,
2013-06-20 03:51:00,51.2,50.0,30.17,NNE,25,0.0,0.0,94,0.00,,,0.00,weatherlink.com 1.10,2013-06-20 07:51:00,
2013-06-20 04:06:00,51.0,49.0,30.17,NNE,24,0.0,0.0,94,0.00,,,0.00,weatherlink.com 1.10,2013-06-20 08:06:00,
2013-06-20 04:21:00,50.8,50.0,30.17,NNE,24,0.0,0.0,95,0.00,,,0.00,weatherlink.com 1.10,2013-06-20 08:21:00,
2013-06-20 04:37:00,50.5,49.0,30.17,NNE,24,0.0,0.0,95,0.00,,,0.00,weatherlink.com 1.10,2013-06-20 08:37:00,
2013-06-20 04:52:00,50.4,49.0,30.18,NNE,25,0.0,0.0,95,0.00,,,0.00,weatherlink.com 1.10,2013-06-20 08:52:00,
2013-06-20 05:07:00,50.4,49.0,30.18,NNE,24,0.0,0.0,95,0.00,,,0.00,weatherlink.com 1.10,2013-06-20 09:07:00,
2013-06-20 05:22:00,50.1,49.0,30.19,NNE,25,0.0,0.0,95,0.00,,,0.00,weatherlink.com 1.10,2013-06-20 09:22:00,
2013-06-20 05:37:00,49.9,49.0,30.19,NNE,25,0.0,0.0,95,0.00,,,0.00,weatherlink.com 1.10,2013-06-20 09:37:00,
2013-06-20 05:52:00,49.6,48.0,30.19,NNE,24,0.0,0.0,95,0.00,,,0.00,weatherlink.com 1.10,2013-06-20 09:52:00,
2013-06-20 06:07:00,49.7,48.0,30.20,NNE,24,0.0,0.0,95,0.00,,,0.00,weatherlink.com 1.10,2013-06-20 10:07:00,
2013-06-20 06:22:00,49.9,49.0,30.20,North,357,0.0,0.0,95,0.00,,,0.00,weatherlink.com 1.10,2013-06-20 10:22:00,
2013-06-20 06:37:00,50.0,49.0,30.21,North,357,0.0,0.0,95,0.00,,,0.00,weatherlink.com 1.10,2013-06-20 10:37:00,
2013-06-20 06:52:00,50.6,50.0,30.20,North,357,0.0,0.0,96,0.00,,,0.00,weatherlink.com 1.10,2013-06-20 10:52:00,
2013-06-20 07:07:00,51.5,50.0,30.20,North,357,0.0,0.0,96,0.00,,,0.00,weatherlink.com 1.10,2013-06-20 11:07:00,
2013-06-20 07:22:00,55.3,54.0,30.20,North,357,0.0,0.0,96,0.00,,,0.00,weatherlink.com 1.10,2013-06-20 11:22:00,
2013-06-20 07:37:00,58.7,57.0,30.21,North,356,0.0,0.0,95,0.00,,,0.00,weatherlink.com 1.10,2013-06-20 11:37:00,
2013-06-20 07:52:00,62.4,60.0,30.22,North,357,0.0,0.0,93,0.00,,,0.00,weatherlink.com 1.10,2013-06-20 11:52:00,
2013-06-20 08:07:00,65.5,60.0,30.22,North,357,0.0,0.0,83,0.00,,,0.00,weatherlink.com 1.10,2013-06-20 12:07:00,
2013-06-20 08:22:00,67.9,61.0,30.23,North,357,0.0,0.0,78,0.00,,,0.00,weatherlink.com 1.10,2013-06-20 12:22:00,
2013-06-20 08:37:00,67.7,59.0,30.23,ENE,75,0.0,1.0,74,0.00,,,0.00,weatherlink.com 1.10,2013-06-20 12:37:00,
2013-06-20 08:52:00,67.7,60.0,30.23,ENE,74,0.0,1.0,77,0.00,,,0.00,weatherlink.com 1.10,2013-06-20 12:52:00,
2013-06-20 09:07:00,68.8,61.0,30.23,East,82,1.0,1.0,76,0.00,,,0.00,weatherlink.com 1.10,2013-06-20 13:07:00,
2013-06-20 09:22:00,69.9,60.0,30.23,ENE,63,0.0,2.0,72,0.00,,,0.00,weatherlink.com 1.10,2013-06-20 13:22:00,
2013-06-20 09:37:00,71.3,61.0,30.23,SE,136,1.0,2.0,71,0.00,,,0.00,weatherlink.com 1.10,2013-06-20 13:37:00,
2013-06-20 09:52:00,72.1,60.0,30.23,NW,305,0.0,2.0,66,0.00,,,0.00,weatherlink.com 1.10,2013-06-20 13:52:00,
2013-06-20 10:07:00,73.1,58.0,30.23,West,280,0.0,2.0,60,0.00,,,0.00,weatherlink.com 1.10,2013-06-20 14:07:00,
2013-06-20 10:22:00,73.2,58.0,30.23,SSW,208,0.0,3.0,60,0.00,,,0.00,weatherlink.com 1.10,2013-06-20 14:22:00,
2013-06-20 10:37:00,73.6,59.0,30.23,East,79,1.0,3.0,60,0.00,,,0.00,weatherlink.com 1.10,2013-06-20 14:37:00,
2013-06-20 10:52:00,74.4,60.0,30.23,NNE,16,1.0,3.0,61,0.00,,,0.00,weatherlink.com 1.10,2013-06-20 14:52:00,
2013-06-20 11:08:00,74.7,57.0,30.23,SW,226,0.0,3.0,55,0.00,,,0.00,weatherlink.com 1.10,2013-06-20 15:08:00,
2013-06-20 11:23:00,75.4,56.0,30.23,WNW,283,2.0,4.0,51,0.00,,,0.00,weatherlink.com 1.10,2013-06-20 15:23:00,
2013-06-20 11:38:00,75.2,54.0,30.23,WNW,283,1.0,6.0,48,0.00,,,0.00,weatherlink.com 1.10,2013-06-20 15:38:00,
2013-06-20 11:53:00,75.4,54.0,30.23,SSW,197,1.0,3.0,47,0.00,,,0.00,weatherlink.com 1.10,2013-06-20 15:53:00,
2013-06-20 12:08:00,75.4,53.0,30.23,WSW,249,4.0,7.0,46,0.00,,,0.00,weatherlink.com 1.10,2013-06-20 16:08:00,
2013-06-20 12:23:00,75.8,54.0,30.23,North,358,0.0,5.0,47,0.00,,,0.00,weatherlink.com 1.10,2013-06-20 16:23:00,
2013-06-20 12:38:00,76.0,55.0,30.23,SW,218,3.0,6.0,48,0.00,,,0.00,weatherlink.com 1.10,2013-06-20 16:38:00,
2013-06-20 12:53:00,76.7,54.0,30.23,WNW,293,2.0,5.0,45,0.00,,,0.00,weatherlink.com 1.10,2013-06-20 16:53:00,
2013-06-20 13:08:00,76.9,55.0,30.22,NE,53,2.0,7.0,47,0.00,,,0.00,weatherlink.com 1.10,2013-06-20 17:08:00,
2013-06-20 13:23:00,77.0,55.0,30.22,WSW,248,1.0,7.0,46,0.00,,,0.00,weatherlink.com 1.10,2013-06-20 17:23:00,
2013-06-20 13:38:00,78.0,56.0,30.21,SW,234,2.0,4.0,46,0.00,,,0.00,weatherlink.com 1.10,2013-06-20 17:38:00,
2013-06-20 13:53:00,78.1,54.0,30.21,WNW,292,3.0,5.0,43,0.00,,,0.00,weatherlink.com 1.10,2013-06-20 17:53:00,
2013-06-20 14:08:00,78.1,55.0,30.21,SSW,211,2.0,7.0,45,0.00,,,0.00,weatherlink.com 1.10,2013-06-20 18:08:00,
2013-06-20 14:23:00,78.5,55.0,30.20,WSW,249,2.0,5.0,44,0.00,,,0.00,weatherlink.com 1.10,2013-06-20 18:23:00,
2013-06-20 14:38:00,79.5,53.0,30.20,SW,232,2.0,6.0,40,0.00,,,0.00,weatherlink.com 1.10,2013-06-20 18:38:00,
2013-06-20 14:53:00,80.9,56.0,30.20,East,91,0.0,3.0,42,0.00,,,0.00,weatherlink.com 1.10,2013-06-20 18:53:00,
2013-06-20 15:08:00,80.4,55.0,30.20,WNW,298,2.0,7.0,42,0.00,,,0.00,weatherlink.com 1.10,2013-06-20 19:08:00,
2013-06-20 15:23:00,80.4,54.0,30.19,NW,305,0.0,5.0,40,0.00,,,0.00,weatherlink.com 1.10,2013-06-20 19:23:00,
2013-06-20 15:38:00,80.0,55.0,30.20,South,190,2.0,5.0,43,0.00,,,0.00,weatherlink.com 1.10,2013-06-20 19:38:00,
2013-06-20 15:53:00,80.6,55.0,30.20,WSW,257,2.0,7.0,42,0.00,,,0.00,weatherlink.com 1.10,2013-06-20 19:53:00,
2013-06-20 16:08:00,80.8,56.0,30.20,West,271,0.0,3.0,43,0.00,,,0.00,weatherlink.com 1.10,2013-06-20 20:08:00,
2013-06-20 16:23:00,82.0,55.0,30.20,West,280,2.0,3.0,39,0.00,,,0.00,weatherlink.com 1.10,2013-06-20 20:23:00,
2013-06-20 16:38:00,81.9,55.0,30.20,West,281,1.0,5.0,40,0.00,,,0.00,weatherlink.com 1.10,2013-06-20 20:38:00,
2013-06-20 16:53:00,82.2,54.0,30.20,SW,221,1.0,4.0,38,0.00,,,0.00,weatherlink.com 1.10,2013-06-20 20:53:00,
2013-06-20 17:08:00,83.1,54.0,30.20,SW,233,1.0,3.0,37,0.00,,,0.00,weatherlink.com 1.10,2013-06-20 21:08:00,
2013-06-20 17:23:00,83.0,55.0,30.20,SSE,166,0.0,1.0,38,0.00,,,0.00,weatherlink.com 1.10,2013-06-20 21:23:00,
2013-06-20 17:38:00,83.0,58.0,30.20,ENE,69,0.0,2.0,42,0.00,,,0.00,weatherlink.com 1.10,2013-06-20 21:38:00,
2013-06-20 17:53:00,83.4,57.0,30.20,North,8,0.0,2.0,40,0.00,,,0.00,weatherlink.com 1.10,2013-06-20 21:53:00,
2013-06-20 18:08:00,83.0,54.0,30.20,SW,219,0.0,2.0,37,0.00,,,0.00,weatherlink.com 1.10,2013-06-20 22:08:00,
2013-06-20 18:23:00,83.4,55.0,30.19,South,191,0.0,3.0,38,0.00,,,0.00,weatherlink.com 1.10,2013-06-20 22:23:00,
2013-06-20 18:38:00,83.5,56.0,30.20,WSW,248,0.0,1.0,39,0.00,,,0.00,weatherlink.com 1.10,2013-06-20 22:38:00,
2013-06-20 18:53:00,82.4,56.0,30.20,SSE,152,0.0,1.0,40,0.00,,,0.00,weatherlink.com 1.10,2013-06-20 22:53:00,
2013-06-20 19:08:00,79.9,57.0,30.20,North,9,1.0,1.0,45,0.00,,,0.00,weatherlink.com 1.10,2013-06-20 23:08:00,
2013-06-20 19:23:00,77.4,57.0,30.20,North,9,0.0,1.0,50,0.00,,,0.00,weatherlink.com 1.10,2013-06-20 23:23:00,
2013-06-20 19:38:00,75.8,59.0,30.20,North,9,0.0,0.0,57,0.00,,,0.00,weatherlink.com 1.10,2013-06-20 23:38:00,
2013-06-20 19:54:00,75.1,59.0,30.20,North,9,0.0,0.0,57,0.00,,,0.00,weatherlink.com 1.10,2013-06-20 23:54:00,
2013-06-20 20:08:00,73.2,60.0,30.20,North,9,0.0,0.0,63,0.00,,,0.00,weatherlink.com 1.10,2013-06-21 00:08:00,
2013-06-20 20:23:00,70.6,59.0,30.20,North,9,0.0,0.0,66,0.00,,,0.00,weatherlink.com 1.10,2013-06-21 00:23:00,
2013-06-20 20:38:00,68.4,58.0,30.20,North,9,0.0,0.0,70,0.00,,,0.00,weatherlink.com 1.10,2013-06-21 00:38:00,
2013-06-20 20:54:00,66.8,58.0,30.19,North,8,0.0,0.0,73,0.00,,,0.00,weatherlink.com 1.10,2013-06-21 00:54:00,
2013-06-20 21:09:00,65.4,58.0,30.20,North,9,0.0,0.0,76,0.00,,,0.00,weatherlink.com 1.10,2013-06-21 01:09:00,
2013-06-20 21:24:00,63.9,57.0,30.20,North,9,0.0,0.0,79,0.00,,,0.00,weatherlink.com 1.10,2013-06-21 01:24:00,
2013-06-20 21:39:00,62.7,57.0,30.20,North,9,0.0,0.0,81,0.00,,,0.00,weatherlink.com 1.10,2013-06-21 01:39:00,
2013-06-20 21:54:00,61.7,57.0,30.21,North,8,0.0,0.0,84,0.00,,,0.00,weatherlink.com 1.10,2013-06-21 01:54:00,
2013-06-20 22:09:00,60.8,57.0,30.21,North,8,0.0,0.0,86,0.00,,,0.00,weatherlink.com 1.10,2013-06-21 02:09:00,
2013-06-20 22:24:00,60.0,56.0,30.21,North,8,0.0,0.0,87,0.00,,,0.00,weatherlink.com 1.10,2013-06-21 02:24:00,
2013-06-20 22:39:00,59.3,56.0,30.21,North,9,0.0,0.0,88,0.00,,,0.00,weatherlink.com 1.10,2013-06-21 02:39:00,
2013-06-20 22:54:00,58.6,55.0,30.22,North,8,0.0,0.0,88,0.00,,,0.00,weatherlink.com 1.10,2013-06-21 02:54:00,
2013-06-20 23:09:00,58.0,55.0,30.22,North,9,0.0,0.0,89,0.00,,,0.00,weatherlink.com 1.10,2013-06-21 03:09:00,
2013-06-20 23:24:00,57.4,54.0,30.22,North,8,0.0,0.0,89,0.00,,,0.00,weatherlink.com 1.10,2013-06-21 03:24:00,
2013-06-20 23:39:00,56.9,54.0,30.23,North,9,0.0,0.0,90,0.00,,,0.00,weatherlink.com 1.10,2013-06-21 03:39:00,
2013-06-20 23:54:00,56.6,54.0,30.23,North,8,0.0,0.0,91,0.00,,,0.00,weatherlink.com 1.10,2013-06-21 03:54:00,